createdAt,value
2018-11-14T00:01:51.878Z,14.73
2018-11-14T00:04:20.729Z,15.03
2018-11-14T00:06:49.590Z,15.60
2018-11-14T00:09:18.262Z,10.93
2018-11-14T00:11:46.974Z,15.40
2018-11-14T00:14:15.810Z,19.07
2018-11-14T00:16:44.433Z,15.40
2018-11-14T00:19:13.168Z,15.27
2018-11-14T00:21:41.861Z,12.40
2018-11-14T00:24:10.734Z,14.20
2018-11-14T00:26:39.341Z,10.13
2018-11-14T00:29:08.059Z,10.00
2018-11-14T00:31:36.691Z,10.13
2018-11-14T00:34:05.619Z,16.13
2018-11-14T00:36:34.485Z,12.57
2018-11-14T00:39:03.557Z,15.07
2018-11-14T00:41:32.242Z,13.23
2018-11-14T00:44:00.874Z,13.80
2018-11-14T00:46:29.595Z,11.40
2018-11-14T00:48:58.459Z,13.83
2018-11-14T00:51:27.085Z,16.43
2018-11-14T00:53:55.821Z,15.23
2018-11-14T00:56:24.455Z,11.40
2018-11-14T00:58:53.306Z,17.67
2018-11-14T01:01:22.825Z,16.03
2018-11-14T01:03:51.448Z,15.30
2018-11-14T01:06:19.942Z,11.97
2018-11-14T01:08:48.739Z,15.37
2018-11-14T01:11:17.554Z,11.27
2018-11-14T01:13:46.197Z,13.07
2018-11-14T01:16:14.931Z,15.90
2018-11-14T01:18:43.782Z,15.20
2018-11-14T01:21:12.414Z,16.53
2018-11-14T01:23:41.142Z,17.33
2018-11-14T01:26:10.158Z,19.10
2018-11-14T01:28:38.637Z,14.93
2018-11-14T01:31:07.147Z,11.97
2018-11-14T01:33:35.662Z,11.73
2018-11-14T01:36:04.226Z,12.47
2018-11-14T01:38:32.690Z,9.87
2018-11-14T01:41:01.254Z,9.67
2018-11-14T01:43:29.930Z,16.37
2018-11-14T01:45:59.616Z,10.50
2018-11-14T01:48:28.254Z,13.00
2018-11-14T01:50:56.766Z,12.90
2018-11-14T01:53:25.522Z,13.30
2018-11-14T01:55:54.170Z,17.27
2018-11-14T01:58:22.926Z,14.63
2018-11-14T02:00:51.654Z,14.00
2018-11-14T02:03:20.181Z,14.63
2018-11-14T02:05:48.947Z,13.73
2018-11-14T02:08:17.869Z,15.83
2018-11-14T02:10:46.518Z,15.13
2018-11-14T02:13:15.054Z,15.07
2018-11-14T02:15:43.573Z,13.13
2018-11-14T02:18:12.403Z,13.67
2018-11-14T02:20:41.169Z,11.70
2018-11-14T02:23:10.034Z,13.20
2018-11-14T02:25:38.915Z,10.83
2018-11-14T02:28:07.560Z,13.53
2018-11-14T02:30:36.162Z,13.67
2018-11-14T02:33:05.844Z,15.13
2018-11-14T02:35:34.619Z,11.37
2018-11-14T02:38:03.264Z,12.40
2018-11-14T02:40:31.791Z,12.97
2018-11-14T02:43:00.370Z,14.97
2018-11-14T02:45:28.897Z,16.40
2018-11-14T02:47:57.422Z,12.47
2018-11-14T02:50:26.038Z,12.80
2018-11-14T02:52:54.845Z,12.40
2018-11-14T02:55:23.507Z,17.97
2018-11-14T02:57:52.019Z,15.17
2018-11-14T03:00:21.703Z,13.50
2018-11-14T03:02:50.372Z,11.77
2018-11-14T03:05:19.119Z,8.93
2018-11-14T03:07:47.962Z,15.70
2018-11-14T03:10:18.341Z,12.03
2018-11-14T03:12:46.943Z,14.93
2018-11-14T03:15:17.385Z,13.50
2018-11-14T03:17:46.108Z,16.07
2018-11-14T03:20:17.145Z,14.87
2018-11-14T03:22:45.912Z,12.53
2018-11-14T03:25:14.955Z,12.90
2018-11-14T03:27:43.511Z,11.73
2018-11-14T03:30:14.489Z,10.87
2018-11-14T03:32:43.844Z,21.83
2018-11-14T03:35:13.211Z,15.60
2018-11-14T03:37:41.740Z,17.57
2018-11-14T03:40:12.645Z,22.17
2018-11-14T03:42:41.294Z,10.20
2018-11-14T03:45:11.455Z,11.70
2018-11-14T03:47:40.326Z,13.73
2018-11-14T03:50:09.409Z,14.13
2018-11-14T03:52:38.001Z,12.17
2018-11-14T03:55:06.746Z,12.60
2018-11-14T03:57:35.339Z,15.63
2018-11-14T04:00:05.300Z,19.60
2018-11-14T04:02:34.047Z,17.87
2018-11-14T04:05:02.953Z,15.03
2018-11-14T04:07:31.578Z,16.27
2018-11-14T04:10:00.335Z,13.83
2018-11-14T04:12:29.286Z,17.47
2018-11-14T04:14:58.083Z,15.43
2018-11-14T04:17:26.755Z,16.90
2018-11-14T04:19:55.502Z,18.67
2018-11-14T04:22:24.146Z,16.40
2018-11-14T04:24:52.878Z,14.60
2018-11-14T04:27:21.514Z,12.20
2018-11-14T04:29:50.292Z,21.60
2018-11-14T04:32:19.137Z,15.27
2018-11-14T04:34:48.014Z,16.00
2018-11-14T04:37:16.721Z,16.43
2018-11-14T04:39:45.322Z,16.27
2018-11-14T04:42:14.116Z,15.73
2018-11-14T04:44:42.975Z,15.07
2018-11-14T04:47:11.834Z,16.23
2018-11-14T04:49:40.744Z,13.60
2018-11-14T04:52:09.423Z,15.27
2018-11-14T04:54:37.945Z,15.37
2018-11-14T04:57:06.520Z,18.63
2018-11-14T04:59:34.985Z,13.67
2018-11-14T05:02:03.510Z,15.40
2018-11-14T05:04:32.030Z,14.40
2018-11-14T05:07:00.671Z,15.20
2018-11-14T05:09:29.185Z,15.83
2018-11-14T05:11:57.948Z,15.27
2018-11-14T05:14:26.795Z,13.33
2018-11-14T05:16:55.663Z,15.40
2018-11-14T05:19:24.317Z,12.77
2018-11-14T05:21:53.401Z,15.17
2018-11-14T05:24:22.025Z,16.50
2018-11-14T05:26:50.508Z,14.77
2018-11-14T05:29:19.009Z,18.53
2018-11-14T05:31:47.602Z,16.03
2018-11-14T05:34:16.275Z,15.27
2018-11-14T05:36:45.122Z,17.03
2018-11-14T05:39:13.763Z,17.63
2018-11-14T05:41:42.273Z,21.17
2018-11-14T05:44:10.793Z,15.37
2018-11-14T05:46:39.341Z,30.30
2018-11-14T05:49:07.882Z,17.40
2018-11-14T05:51:36.395Z,13.63
2018-11-14T05:54:05.760Z,16.67
2018-11-14T05:56:34.674Z,16.43
2018-11-14T05:59:03.330Z,14.83
2018-11-14T06:01:31.858Z,20.87
2018-11-14T06:04:00.394Z,15.47
2018-11-14T06:06:28.957Z,19.77
2018-11-14T06:08:57.477Z,14.17
2018-11-14T06:11:26.227Z,19.57
2018-11-14T06:13:55.334Z,13.27
2018-11-14T06:16:24.163Z,13.23
2018-11-14T06:18:53.042Z,12.07
2018-11-14T06:21:21.699Z,16.80
2018-11-14T06:23:50.228Z,21.97
2018-11-14T06:26:18.989Z,14.00
2018-11-14T06:28:47.904Z,17.87
2018-11-14T06:31:16.546Z,18.43
2018-11-14T06:33:45.077Z,13.50
2018-11-14T06:36:13.602Z,21.53
2018-11-14T06:38:42.118Z,14.07
2018-11-14T06:41:11.658Z,16.03
2018-11-14T06:43:40.491Z,17.17
2018-11-14T06:46:09.135Z,14.63
2018-11-14T06:48:37.645Z,15.93
2018-11-14T06:51:07.002Z,14.53
2018-11-14T06:53:35.867Z,18.30
2018-11-14T06:56:04.864Z,13.90
2018-11-14T06:58:33.376Z,15.97
2018-11-14T07:01:02.093Z,16.40
2018-11-14T07:03:30.775Z,15.50
2018-11-14T07:05:59.562Z,14.10
2018-11-14T07:08:28.311Z,16.80
2018-11-14T07:10:57.220Z,16.90
2018-11-14T07:13:26.006Z,18.77
2018-11-14T07:15:54.735Z,15.30
2018-11-14T07:18:23.459Z,14.10
2018-11-14T07:20:52.509Z,15.67
2018-11-14T07:23:21.236Z,15.17
2018-11-14T07:25:50.086Z,14.70
2018-11-14T07:28:18.722Z,15.63
2018-11-14T07:30:47.249Z,12.70
2018-11-14T07:33:15.824Z,15.87
2018-11-14T07:35:44.350Z,15.13
2018-11-14T07:38:47.977Z,21.63
2018-11-14T07:41:18.326Z,14.70
2018-11-14T07:43:46.997Z,23.27
2018-11-14T07:46:15.785Z,13.97
2018-11-14T07:48:45.504Z,15.37
2018-11-14T07:51:14.106Z,13.93
2018-11-14T07:53:42.678Z,15.77
2018-11-14T07:56:11.414Z,17.40
2018-11-14T07:58:40.294Z,15.77
2018-11-14T08:01:09.140Z,16.70
2018-11-14T08:03:37.781Z,13.53
2018-11-14T08:06:06.297Z,16.80
2018-11-14T08:08:35.089Z,11.53
2018-11-14T08:11:03.732Z,11.97
2018-11-14T08:13:33.357Z,13.00
2018-11-14T08:16:02.289Z,10.40
2018-11-14T08:18:30.842Z,15.43
2018-11-14T08:21:00.471Z,11.00
2018-11-14T08:23:29.340Z,14.20
2018-11-14T08:25:58.541Z,14.60
2018-11-14T08:28:27.069Z,15.43
2018-11-14T08:30:55.802Z,10.50
2018-11-14T08:33:24.481Z,14.23
2018-11-14T08:35:53.508Z,11.43
2018-11-14T08:38:23.264Z,12.27
2018-11-14T08:40:51.795Z,14.70
2018-11-14T08:43:20.535Z,13.57
2018-11-14T08:45:49.528Z,16.37
2018-11-14T08:48:18.447Z,16.90
2018-11-14T08:50:47.310Z,14.27
2018-11-14T08:53:15.973Z,14.13
2018-11-14T08:55:44.552Z,10.80
2018-11-14T08:58:13.785Z,17.80
2018-11-14T09:00:42.490Z,15.00
2018-11-14T09:03:12.627Z,13.50
2018-11-14T09:05:41.249Z,16.97
2018-11-14T09:08:09.778Z,14.17
2018-11-14T09:10:38.590Z,15.97
2018-11-14T09:13:12.048Z,15.00
2018-11-14T09:15:40.954Z,16.30
2018-11-14T09:18:09.703Z,13.43
2018-11-14T09:20:38.405Z,18.30
2018-11-14T09:23:07.454Z,16.77
2018-11-14T09:25:36.273Z,18.00
2018-11-14T09:28:05.319Z,14.83
2018-11-14T09:30:34.195Z,13.43
2018-11-14T09:33:02.918Z,14.67
2018-11-14T09:35:31.382Z,14.43
2018-11-14T09:38:00.662Z,12.53
2018-11-14T09:40:30.106Z,14.47
2018-11-14T09:42:58.973Z,16.77
2018-11-14T09:45:28.754Z,16.40
2018-11-14T09:47:57.294Z,13.50
2018-11-14T09:50:27.346Z,16.10
2018-11-14T09:52:57.365Z,16.90
2018-11-14T09:55:26.106Z,17.30
2018-11-14T09:57:54.746Z,14.50
2018-11-14T10:00:24.753Z,14.33
2018-11-14T10:02:55.416Z,12.60
2018-11-14T10:05:24.551Z,15.07
2018-11-14T10:07:53.007Z,17.37
2018-11-14T10:10:22.254Z,13.73
2018-11-14T10:12:50.787Z,14.80
2018-11-14T10:15:21.607Z,17.83
2018-11-14T10:17:50.385Z,14.80
2018-11-14T10:20:20.528Z,16.17
2018-11-14T10:22:49.406Z,13.57
2018-11-14T10:25:18.320Z,13.77
2018-11-14T10:27:47.692Z,17.87
2018-11-14T10:30:18.779Z,15.23
2018-11-14T10:32:47.857Z,19.47
2018-11-14T10:35:16.417Z,17.43
2018-11-14T10:37:45.137Z,17.63
2018-11-14T10:40:18.499Z,15.70
2018-11-14T10:42:47.397Z,14.17
2018-11-14T10:45:17.563Z,15.43
2018-11-14T10:47:46.407Z,19.97
2018-11-14T10:50:17.151Z,13.90
2018-11-14T10:52:45.717Z,15.27
2018-11-14T10:55:15.082Z,13.13
2018-11-14T10:57:43.851Z,17.03
2018-11-14T11:00:18.776Z,21.63
2018-11-14T11:02:52.961Z,17.17
2018-11-14T11:05:28.581Z,18.53
2018-11-14T11:08:02.847Z,17.63
2018-11-14T11:10:37.132Z,15.93
2018-11-14T11:13:08.263Z,17.63
2018-11-14T11:15:42.426Z,17.47
2018-11-14T11:18:14.979Z,18.87
2018-11-14T11:20:43.987Z,15.80
2018-11-14T11:23:12.760Z,17.37
2018-11-14T11:25:41.959Z,21.73
2018-11-14T11:28:10.638Z,18.13
2018-11-14T11:30:39.615Z,16.67
2018-11-14T11:33:08.266Z,16.27
2018-11-14T11:35:36.901Z,15.47
2018-11-14T11:38:05.975Z,12.10
2018-11-14T11:40:34.893Z,14.13
2018-11-14T11:43:04.741Z,16.73
2018-11-14T11:45:34.122Z,15.90
2018-11-14T11:48:02.884Z,14.13
2018-11-14T11:50:31.794Z,15.27
2018-11-14T11:53:00.861Z,13.33
2018-11-14T11:55:29.593Z,16.97
2018-11-14T11:57:58.225Z,17.37
2018-11-14T12:00:26.906Z,14.50
2018-11-14T12:02:55.530Z,17.07
2018-11-14T12:05:24.226Z,16.40
2018-11-14T12:07:52.963Z,14.57
2018-11-14T12:10:21.626Z,14.83
2018-11-14T12:12:50.404Z,14.27
2018-11-14T12:15:19.234Z,12.97
2018-11-14T12:17:48.104Z,14.50
2018-11-14T12:20:16.973Z,10.07
2018-11-14T12:22:45.607Z,10.43
2018-11-14T12:25:15.138Z,12.80
2018-11-14T12:27:44.020Z,11.80
2018-11-14T12:30:14.544Z,10.83
2018-11-14T12:32:43.101Z,10.13
2018-11-14T12:35:13.367Z,11.50
2018-11-14T12:37:42.429Z,12.43
2018-11-14T12:40:12.438Z,13.73
2018-11-14T12:42:41.471Z,9.87
2018-11-14T12:45:12.245Z,9.23
2018-11-14T12:47:41.156Z,8.67
2018-11-14T12:50:10.967Z,7.03
2018-11-14T12:52:39.837Z,10.17
2018-11-14T12:55:09.670Z,10.37
2018-11-14T12:57:38.285Z,7.93
2018-11-14T13:00:07.895Z,7.77
2018-11-14T13:02:36.569Z,9.33
2018-11-14T13:05:05.630Z,6.60
2018-11-14T13:07:34.397Z,9.37
2018-11-14T13:10:03.035Z,8.23
2018-11-14T13:12:31.759Z,7.93
2018-11-14T13:15:00.611Z,8.03
2018-11-14T13:17:29.301Z,9.50
2018-11-14T13:19:57.799Z,12.43
2018-11-14T13:22:26.277Z,6.60
2018-11-14T13:24:54.785Z,9.50
2018-11-14T13:27:23.297Z,10.70
2018-11-14T13:29:51.817Z,9.77
2018-11-14T13:32:20.585Z,12.17
2018-11-14T13:34:49.198Z,11.57
2018-11-14T13:37:17.963Z,9.13
2018-11-14T13:39:46.814Z,11.03
2018-11-14T13:42:15.733Z,10.00
2018-11-14T13:44:44.612Z,8.37
2018-11-14T13:47:13.246Z,9.57
2018-11-14T13:49:41.887Z,7.87
2018-11-14T13:52:10.269Z,8.73
2018-11-14T13:54:38.794Z,7.83
2018-11-14T13:57:07.551Z,8.23
2018-11-14T13:59:36.460Z,8.20
2018-11-14T14:02:05.167Z,9.17
2018-11-14T14:04:33.691Z,9.73
2018-11-14T14:07:02.253Z,9.23
2018-11-14T14:09:30.866Z,10.67
2018-11-14T14:11:59.261Z,6.33
2018-11-14T14:14:27.798Z,10.67
2018-11-14T14:16:56.719Z,7.37
2018-11-14T14:19:25.637Z,6.97
2018-11-14T14:21:54.324Z,5.67
2018-11-14T14:24:22.843Z,7.97
2018-11-14T14:26:51.601Z,7.53
2018-11-14T14:29:21.207Z,9.67
2018-11-14T14:31:50.191Z,6.87
2018-11-14T14:34:18.838Z,8.60
2018-11-14T14:36:47.607Z,12.43
2018-11-14T14:39:16.249Z,10.60
2018-11-14T14:41:45.015Z,9.60
2018-11-14T14:44:13.686Z,8.43
2018-11-14T14:46:42.475Z,8.03
2018-11-14T14:49:11.412Z,8.20
2018-11-14T14:51:40.054Z,11.03
2018-11-14T14:54:08.575Z,12.50
2018-11-14T14:56:37.339Z,9.40
2018-11-14T14:59:06.242Z,6.93
2018-11-14T15:01:35.143Z,8.17
2018-11-14T15:04:03.822Z,8.63
2018-11-14T15:06:32.591Z,7.37
2018-11-14T15:09:01.491Z,8.33
2018-11-14T15:11:30.387Z,7.13
2018-11-14T15:13:59.277Z,8.17
2018-11-14T15:16:27.932Z,8.60
2018-11-14T15:18:56.598Z,10.67
2018-11-14T15:21:25.339Z,8.37
2018-11-14T15:23:53.973Z,7.90
2018-11-14T15:26:22.526Z,6.77
2018-11-14T15:28:51.374Z,5.93
2018-11-14T15:31:20.640Z,8.23
2018-11-14T15:33:49.406Z,10.37
2018-11-14T15:36:18.063Z,13.17
2018-11-14T15:38:46.814Z,9.00
2018-11-14T15:41:15.695Z,11.13
2018-11-14T15:43:44.938Z,8.23
2018-11-14T15:46:13.577Z,8.97
2018-11-14T15:48:42.335Z,6.47
2018-11-14T15:51:11.323Z,9.90
2018-11-14T15:53:40.011Z,7.20
2018-11-14T15:56:08.518Z,8.60
2018-11-14T15:58:37.051Z,8.93
2018-11-14T16:01:05.567Z,6.70
2018-11-14T16:03:34.139Z,6.17
2018-11-14T16:06:02.615Z,8.50
2018-11-14T16:08:31.577Z,7.27
2018-11-14T16:11:00.491Z,8.07
2018-11-14T16:13:29.338Z,9.33
2018-11-14T16:15:57.982Z,8.33
2018-11-14T16:18:26.736Z,9.03
2018-11-14T16:20:55.614Z,10.23
2018-11-14T16:23:24.257Z,8.50
2018-11-14T16:25:53.011Z,8.07
2018-11-14T16:28:21.658Z,8.30
2018-11-14T16:30:50.171Z,6.77
2018-11-14T16:33:18.694Z,6.80
2018-11-14T16:35:47.446Z,9.77
2018-11-14T16:38:16.137Z,9.87
2018-11-14T16:40:44.843Z,10.73
2018-11-14T16:43:13.721Z,8.07
2018-11-14T16:45:42.596Z,8.73
2018-11-14T16:48:11.499Z,10.30
2018-11-14T16:50:40.127Z,7.67
2018-11-14T16:53:08.880Z,11.43
2018-11-14T16:55:37.549Z,10.37
2018-11-14T16:58:06.082Z,9.20
2018-11-14T17:00:34.610Z,10.03
2018-11-14T17:03:03.133Z,6.57
2018-11-14T17:05:32.223Z,10.80
2018-11-14T17:08:00.767Z,7.00
2018-11-14T17:10:29.522Z,8.23
2018-11-14T17:12:59.125Z,8.73
2018-11-14T17:15:27.937Z,8.73
2018-11-14T17:17:56.686Z,9.73
2018-11-14T17:20:25.561Z,11.33
2018-11-14T17:22:54.710Z,9.90
2018-11-14T17:25:23.419Z,9.77
2018-11-14T17:27:52.059Z,8.00
2018-11-14T17:30:22.022Z,12.30
2018-11-14T17:32:51.047Z,7.70
2018-11-14T17:35:20.098Z,7.90
2018-11-14T17:37:48.751Z,8.57
2018-11-14T17:40:22.692Z,8.67
2018-11-14T17:42:52.148Z,8.30
2018-11-14T17:45:22.971Z,9.63
2018-11-14T17:47:52.167Z,8.47
2018-11-14T17:50:25.308Z,11.20
2018-11-14T17:52:54.498Z,8.83
2018-11-14T17:55:23.899Z,9.90
2018-11-14T17:57:52.750Z,9.03
2018-11-14T18:00:22.999Z,10.77
2018-11-14T18:02:51.678Z,9.97
2018-11-14T18:05:21.550Z,10.57
2018-11-14T18:07:50.985Z,8.80
2018-11-14T18:10:21.168Z,11.77
2018-11-14T18:12:51.040Z,8.93
2018-11-14T18:15:20.102Z,10.73
2018-11-14T18:17:49.693Z,9.87
2018-11-14T18:20:19.760Z,6.57
2018-11-14T18:22:49.328Z,8.73
2018-11-14T18:25:17.973Z,7.87
2018-11-14T18:27:48.549Z,7.10
2018-11-14T18:30:18.932Z,7.27
2018-11-14T18:32:47.550Z,8.57
2018-11-14T18:35:16.996Z,10.20
2018-11-14T18:37:46.226Z,10.03
2018-11-14T18:40:17.181Z,9.10
2018-11-14T18:42:46.041Z,6.90
2018-11-14T18:45:18.705Z,10.77
2018-11-14T18:47:47.822Z,6.90
2018-11-14T18:50:17.419Z,6.20
2018-11-14T18:52:46.728Z,6.40
2018-11-14T18:55:16.782Z,10.47
2018-11-14T18:57:45.944Z,9.47
2018-11-14T19:00:16.113Z,8.10
2018-11-14T19:02:44.731Z,10.60
2018-11-14T19:05:13.818Z,8.50
2018-11-14T19:07:42.752Z,8.23
2018-11-14T19:10:12.986Z,8.00
2018-11-14T19:12:42.382Z,10.90
2018-11-14T19:15:14.372Z,7.97
2018-11-14T19:17:43.034Z,7.53
2018-11-14T19:20:15.391Z,7.87
2018-11-14T19:22:44.269Z,8.23
2018-11-14T19:25:16.230Z,8.03
2018-11-14T19:27:45.611Z,8.33
2018-11-14T19:30:18.670Z,11.63
2018-11-14T19:32:48.695Z,9.43
2018-11-14T19:35:17.703Z,10.93
2018-11-14T19:37:47.630Z,9.73
2018-11-14T19:40:18.454Z,8.33
2018-11-14T19:42:47.517Z,11.97
2018-11-14T19:45:18.645Z,7.40
2018-11-14T19:47:47.228Z,7.00
2018-11-14T19:50:16.840Z,8.10
2018-11-14T19:52:45.679Z,9.87
2018-11-14T19:55:15.617Z,9.40
2018-11-14T19:57:45.218Z,8.07
2018-11-14T20:00:16.326Z,7.83
2018-11-14T20:02:45.190Z,7.73
2018-11-14T20:05:15.211Z,8.97
2018-11-14T20:07:43.955Z,7.33
2018-11-14T20:10:19.586Z,8.70
2018-11-14T20:12:49.030Z,8.27
2018-11-14T20:15:19.122Z,8.90
2018-11-14T20:17:48.351Z,9.30
2018-11-14T20:20:19.480Z,9.77
2018-11-14T20:22:48.369Z,8.23
2018-11-14T20:25:17.017Z,11.00
2018-11-14T20:27:46.111Z,10.37
2018-11-14T20:30:17.663Z,11.97
2018-11-14T20:32:46.247Z,8.37
2018-11-14T20:35:16.114Z,7.27
2018-11-14T20:37:44.625Z,10.10
2018-11-14T20:40:15.354Z,8.27
2018-11-14T20:42:44.491Z,8.07
2018-11-14T20:45:14.370Z,11.23
2018-11-14T20:47:42.902Z,6.50
2018-11-14T20:50:13.985Z,9.47
2018-11-14T20:52:43.463Z,9.03
2018-11-14T20:55:12.337Z,10.60
2018-11-14T20:57:41.626Z,10.17
2018-11-14T21:00:12.118Z,9.40
2018-11-14T21:02:41.030Z,12.10
2018-11-14T21:05:10.937Z,9.73
2018-11-14T21:07:39.698Z,10.87
2018-11-14T21:10:10.276Z,12.80
2018-11-14T21:12:39.830Z,13.30
2018-11-14T21:15:10.333Z,12.07
2018-11-14T21:17:39.943Z,10.30
2018-11-14T21:20:09.118Z,9.37
2018-11-14T21:22:37.945Z,11.77
2018-11-14T21:25:08.420Z,9.97
2018-11-14T21:27:37.219Z,9.43
2018-11-14T21:30:08.151Z,10.30
2018-11-14T21:32:37.274Z,11.07
2018-11-14T21:35:11.191Z,9.70
2018-11-14T21:37:40.052Z,13.87
2018-11-14T21:40:09.494Z,10.97
2018-11-14T21:42:38.744Z,10.30
2018-11-14T21:45:08.338Z,10.87
2018-11-14T21:47:42.357Z,10.23
2018-11-14T21:50:11.115Z,12.70
2018-11-14T21:52:39.972Z,9.03
2018-11-14T21:55:09.483Z,12.63
2018-11-14T21:57:38.451Z,12.77
2018-11-14T22:00:08.683Z,10.77
2018-11-14T22:02:37.217Z,14.67
2018-11-14T22:05:05.819Z,13.17
2018-11-14T22:07:34.354Z,14.60
2018-11-14T22:10:02.871Z,13.23
2018-11-14T22:12:31.406Z,13.73
2018-11-14T22:14:59.921Z,12.53
2018-11-14T22:17:28.726Z,15.33
2018-11-14T22:19:57.605Z,12.67
2018-11-14T22:22:26.478Z,11.43
2018-11-14T22:24:55.140Z,13.33
2018-11-14T22:27:23.667Z,11.97
2018-11-14T22:29:52.215Z,21.60
2018-11-14T22:32:20.978Z,18.63
2018-11-14T22:34:49.813Z,13.97
2018-11-14T22:37:18.207Z,14.20
2018-11-14T22:39:46.982Z,14.27
2018-11-14T22:42:15.646Z,16.50
2018-11-14T22:44:44.405Z,15.23
2018-11-14T22:47:13.058Z,13.30
2018-11-14T22:49:41.818Z,14.77
2018-11-14T22:52:10.476Z,16.10
2018-11-14T22:54:39.242Z,15.67
2018-11-14T22:57:07.906Z,18.90
2018-11-14T22:59:36.441Z,16.53
2018-11-14T23:02:05.302Z,18.03
2018-11-14T23:04:34.059Z,20.40
2018-11-14T23:07:02.943Z,23.07
2018-11-14T23:09:31.836Z,19.57
2018-11-14T23:12:00.721Z,17.87
2018-11-14T23:14:29.607Z,20.47
2018-11-14T23:16:58.249Z,22.20
2018-11-14T23:19:27.006Z,23.40
2018-11-14T23:21:55.649Z,23.93
2018-11-14T23:24:24.184Z,22.17
2018-11-14T23:26:52.718Z,23.67
2018-11-14T23:29:21.518Z,25.20
2018-11-14T23:31:50.134Z,25.20
2018-11-14T23:34:18.890Z,26.70
2018-11-14T23:36:47.918Z,30.77
2018-11-14T23:39:16.817Z,22.80
2018-11-14T23:41:45.687Z,23.77
2018-11-14T23:44:14.574Z,25.53
2018-11-14T23:46:43.243Z,24.07
2018-11-14T23:49:12.030Z,25.47
2018-11-14T23:51:40.911Z,26.70
2018-11-14T23:54:09.581Z,30.33
2018-11-14T23:56:38.359Z,27.37
2018-11-14T23:59:07.005Z,25.80
